sensor_id;sensor_type;location;lat;lon;timestamp;temperature;humidity
63966;DHT22;50151;52.030;5.350;2023-02-18T00:01:01;9.60;99.90
63966;DHT22;50151;52.030;5.350;2023-02-18T00:03:28;9.60;99.90
63966;DHT22;50151;52.030;5.350;2023-02-18T00:05:55;9.60;99.90
63966;DHT22;50151;52.030;5.350;2023-02-18T00:08:22;9.60;99.90
63966;DHT22;50151;52.030;5.350;2023-02-18T00:10:48;9.60;99.90
63966;DHT22;50151;52.030;5.350;2023-02-18T00:13:15;9.60;99.90
63966;DHT22;50151;52.030;5.350;2023-02-18T00:15:42;9.50;99.90
63966;DHT22;50151;52.030;5.350;2023-02-18T00:18:08;9.50;99.90
63966;DHT22;50151;52.030;5.350;2023-02-18T00:20:38;9.50;99.90
63966;DHT22;50151;52.030;5.350;2023-02-18T00:23:05;9.40;99.90
63966;DHT22;50151;52.030;5.350;2023-02-18T00:25:31;9.40;99.90
63966;DHT22;50151;52.030;5.350;2023-02-18T00:27:58;9.40;99.90
63966;DHT22;50151;52.030;5.350;2023-02-18T00:30:24;9.40;99.90
63966;DHT22;50151;52.030;5.350;2023-02-18T00:32:51;9.50;99.90
63966;DHT22;50151;52.030;5.350;2023-02-18T00:35:18;9.40;99.90
63966;DHT22;50151;52.030;5.350;2023-02-18T00:37:45;9.40;99.90
63966;DHT22;50151;52.030;5.350;2023-02-18T00:40:11;9.40;99.90
63966;DHT22;50151;52.030;5.350;2023-02-18T00:42:38;9.50;99.90
63966;DHT22;50151;52.030;5.350;2023-02-18T00:45:05;9.50;99.90
63966;DHT22;50151;52.030;5.350;2023-02-18T00:47:32;9.40;99.90
63966;DHT22;50151;52.030;5.350;2023-02-18T00:49:58;9.30;99.90
63966;DHT22;50151;52.030;5.350;2023-02-18T00:52:25;9.30;99.90
63966;DHT22;50151;52.030;5.350;2023-02-18T00:54:52;9.20;99.90
63966;DHT22;50151;52.030;5.350;2023-02-18T00:57:18;9.20;99.90
63966;DHT22;50151;52.030;5.350;2023-02-18T00:59:45;9.10;99.90
63966;DHT22;50151;52.030;5.350;2023-02-18T01:02:12;9.10;99.90
63966;DHT22;50151;52.030;5.350;2023-02-18T01:04:39;9.20;99.90
63966;DHT22;50151;52.030;5.350;2023-02-18T01:07:05;9.20;99.90
63966;DHT22;50151;52.030;5.350;2023-02-18T01:09:32;9.10;99.90
63966;DHT22;50151;52.030;5.350;2023-02-18T01:11:59;9.10;99.90
63966;DHT22;50151;52.030;5.350;2023-02-18T01:14:25;9.10;99.90
63966;DHT22;50151;52.030;5.350;2023-02-18T01:16:52;9.10;99.90
63966;DHT22;50151;52.030;5.350;2023-02-18T01:19:19;9.10;99.90
63966;DHT22;50151;52.030;5.350;2023-02-18T01:21:45;9.10;99.90
63966;DHT22;50151;52.030;5.350;2023-02-18T01:24:12;9.00;99.90
63966;DHT22;50151;52.030;5.350;2023-02-18T01:26:39;9.00;99.90
63966;DHT22;50151;52.030;5.350;2023-02-18T01:29:05;9.00;99.90
63966;DHT22;50151;52.030;5.350;2023-02-18T01:31:32;9.00;99.90
63966;DHT22;50151;52.030;5.350;2023-02-18T01:33:59;9.00;99.90
63966;DHT22;50151;52.030;5.350;2023-02-18T01:36:25;9.00;99.90
63966;DHT22;50151;52.030;5.350;2023-02-18T01:38:52;9.00;99.90
63966;DHT22;50151;52.030;5.350;2023-02-18T01:41:19;9.00;99.90
63966;DHT22;50151;52.030;5.350;2023-02-18T01:43:46;9.10;99.90
63966;DHT22;50151;52.030;5.350;2023-02-18T01:46:14;9.10;99.90
63966;DHT22;50151;52.030;5.350;2023-02-18T01:51:22;9.10;99.90
63966;DHT22;50151;52.030;5.350;2023-02-18T01:54:02;9.10;99.90
63966;DHT22;50151;52.030;5.350;2023-02-18T01:57:02;9.10;99.90
63966;DHT22;50151;52.030;5.350;2023-02-18T01:59:33;9.10;99.90
63966;DHT22;50151;52.030;5.350;2023-02-18T02:02:02;9.20;99.90
63966;DHT22;50151;52.030;5.350;2023-02-18T02:04:29;9.20;99.90
63966;DHT22;50151;52.030;5.350;2023-02-18T02:06:56;9.20;99.90
63966;DHT22;50151;52.030;5.350;2023-02-18T02:09:25;9.20;99.90
63966;DHT22;50151;52.030;5.350;2023-02-18T02:11:58;9.30;99.90
63966;DHT22;50151;52.030;5.350;2023-02-18T02:22:54;9.30;99.90
63966;DHT22;50151;52.030;5.350;2023-02-18T02:28:23;9.40;99.90
63966;DHT22;50151;52.030;5.350;2023-02-18T02:36:39;9.40;99.90
63966;DHT22;50151;52.030;5.350;2023-02-18T02:39:20;9.40;99.90
63966;DHT22;50151;52.030;5.350;2023-02-18T02:44:54;9.50;99.90
63966;DHT22;50151;52.030;5.350;2023-02-18T02:47:40;9.50;99.90
63966;DHT22;50151;52.030;5.350;2023-02-18T02:50:32;9.50;99.90
63966;DHT22;50151;52.030;5.350;2023-02-18T02:53:10;9.60;99.90
63966;DHT22;50151;52.030;5.350;2023-02-18T02:55:39;9.60;99.90
63966;DHT22;50151;52.030;5.350;2023-02-18T02:58:06;9.60;99.90
63966;DHT22;50151;52.030;5.350;2023-02-18T03:00:49;9.60;99.90
63966;DHT22;50151;52.030;5.350;2023-02-18T03:09:38;9.70;99.90
63966;DHT22;50151;52.030;5.350;2023-02-18T03:14:55;9.80;99.90
63966;DHT22;50151;52.030;5.350;2023-02-18T03:17:29;9.80;99.90
63966;DHT22;50151;52.030;5.350;2023-02-18T03:20:09;9.80;99.90
63966;DHT22;50151;52.030;5.350;2023-02-18T03:22:46;9.80;99.90
63966;DHT22;50151;52.030;5.350;2023-02-18T03:25:15;9.80;99.90
63966;DHT22;50151;52.030;5.350;2023-02-18T03:27:52;9.80;99.90
63966;DHT22;50151;52.030;5.350;2023-02-18T03:30:29;9.90;99.90
63966;DHT22;50151;52.030;5.350;2023-02-18T03:33:01;9.90;99.90
63966;DHT22;50151;52.030;5.350;2023-02-18T03:35:28;9.90;99.90
63966;DHT22;50151;52.030;5.350;2023-02-18T03:38:03;9.90;99.90
63966;DHT22;50151;52.030;5.350;2023-02-18T03:40:32;9.90;99.90
63966;DHT22;50151;52.030;5.350;2023-02-18T03:42:59;9.90;99.90
63966;DHT22;50151;52.030;5.350;2023-02-18T03:45:26;9.90;99.90
63966;DHT22;50151;52.030;5.350;2023-02-18T03:47:53;9.90;99.90
63966;DHT22;50151;52.030;5.350;2023-02-18T03:50:19;9.90;99.90
63966;DHT22;50151;52.030;5.350;2023-02-18T03:52:46;9.90;99.90
63966;DHT22;50151;52.030;5.350;2023-02-18T03:55:13;9.90;99.90
63966;DHT22;50151;52.030;5.350;2023-02-18T03:57:40;9.90;99.90
63966;DHT22;50151;52.030;5.350;2023-02-18T04:00:07;9.90;99.90
63966;DHT22;50151;52.030;5.350;2023-02-18T04:02:34;10.00;99.90
63966;DHT22;50151;52.030;5.350;2023-02-18T04:05:00;10.00;99.90
63966;DHT22;50151;52.030;5.350;2023-02-18T04:07:27;10.00;99.90
63966;DHT22;50151;52.030;5.350;2023-02-18T04:09:54;10.00;99.90
63966;DHT22;50151;52.030;5.350;2023-02-18T04:12:20;10.10;99.90
63966;DHT22;50151;52.030;5.350;2023-02-18T04:14:49;10.10;99.90
63966;DHT22;50151;52.030;5.350;2023-02-18T04:17:16;10.10;99.90
63966;DHT22;50151;52.030;5.350;2023-02-18T04:19:43;10.10;99.90
63966;DHT22;50151;52.030;5.350;2023-02-18T04:22:09;10.10;99.90
63966;DHT22;50151;52.030;5.350;2023-02-18T04:24:36;10.20;99.90
63966;DHT22;50151;52.030;5.350;2023-02-18T04:27:03;10.20;99.90
63966;DHT22;50151;52.030;5.350;2023-02-18T04:29:30;10.10;99.90
63966;DHT22;50151;52.030;5.350;2023-02-18T04:31:56;10.20;99.90
63966;DHT22;50151;52.030;5.350;2023-02-18T04:34:23;10.10;99.90
63966;DHT22;50151;52.030;5.350;2023-02-18T04:36:50;10.10;99.90
63966;DHT22;50151;52.030;5.350;2023-02-18T04:39:16;10.10;99.90
63966;DHT22;50151;52.030;5.350;2023-02-18T04:41:43;10.10;99.90
63966;DHT22;50151;52.030;5.350;2023-02-18T04:44:09;10.10;99.90
63966;DHT22;50151;52.030;5.350;2023-02-18T04:46:36;10.00;99.90
63966;DHT22;50151;52.030;5.350;2023-02-18T04:49:03;10.00;99.90
63966;DHT22;50151;52.030;5.350;2023-02-18T04:51:29;10.00;99.90
63966;DHT22;50151;52.030;5.350;2023-02-18T04:53:56;10.00;99.90
63966;DHT22;50151;52.030;5.350;2023-02-18T04:56:23;10.00;99.90
63966;DHT22;50151;52.030;5.350;2023-02-18T04:58:49;10.00;99.90
63966;DHT22;50151;52.030;5.350;2023-02-18T05:01:16;10.00;99.90
63966;DHT22;50151;52.030;5.350;2023-02-18T05:03:43;10.00;99.90
63966;DHT22;50151;52.030;5.350;2023-02-18T05:06:11;10.00;99.90
63966;DHT22;50151;52.030;5.350;2023-02-18T05:08:38;10.00;99.90
63966;DHT22;50151;52.030;5.350;2023-02-18T05:11:06;10.00;99.90
63966;DHT22;50151;52.030;5.350;2023-02-18T05:13:33;9.90;99.90
63966;DHT22;50151;52.030;5.350;2023-02-18T05:16:00;9.90;99.90
63966;DHT22;50151;52.030;5.350;2023-02-18T05:18:27;9.90;99.90
63966;DHT22;50151;52.030;5.350;2023-02-18T05:20:54;9.90;99.90
63966;DHT22;50151;52.030;5.350;2023-02-18T05:23:20;9.90;99.90
63966;DHT22;50151;52.030;5.350;2023-02-18T05:25:47;9.90;99.90
63966;DHT22;50151;52.030;5.350;2023-02-18T05:28:14;9.90;99.90
63966;DHT22;50151;52.030;5.350;2023-02-18T05:30:40;9.80;99.90
63966;DHT22;50151;52.030;5.350;2023-02-18T05:33:07;9.90;99.90
63966;DHT22;50151;52.030;5.350;2023-02-18T05:35:34;9.80;99.90
63966;DHT22;50151;52.030;5.350;2023-02-18T05:38:01;9.80;99.90
63966;DHT22;50151;52.030;5.350;2023-02-18T05:40:27;9.80;99.90
63966;DHT22;50151;52.030;5.350;2023-02-18T05:42:54;9.80;99.90
63966;DHT22;50151;52.030;5.350;2023-02-18T05:45:21;9.80;99.90
63966;DHT22;50151;52.030;5.350;2023-02-18T05:47:47;9.80;99.90
63966;DHT22;50151;52.030;5.350;2023-02-18T05:50:14;9.80;99.90
63966;DHT22;50151;52.030;5.350;2023-02-18T05:52:41;9.80;99.90
63966;DHT22;50151;52.030;5.350;2023-02-18T05:55:07;9.80;99.90
63966;DHT22;50151;52.030;5.350;2023-02-18T05:57:34;9.80;99.90
63966;DHT22;50151;52.030;5.350;2023-02-18T06:00:00;9.80;99.90
63966;DHT22;50151;52.030;5.350;2023-02-18T06:02:27;9.80;99.90
63966;DHT22;50151;52.030;5.350;2023-02-18T06:04:54;9.80;99.90
63966;DHT22;50151;52.030;5.350;2023-02-18T06:07:20;9.80;99.90
63966;DHT22;50151;52.030;5.350;2023-02-18T06:09:47;9.80;99.90
63966;DHT22;50151;52.030;5.350;2023-02-18T06:12:14;9.80;99.90
63966;DHT22;50151;52.030;5.350;2023-02-18T06:14:40;9.80;99.90
63966;DHT22;50151;52.030;5.350;2023-02-18T06:17:08;9.80;99.90
63966;DHT22;50151;52.030;5.350;2023-02-18T06:19:35;9.80;99.90
63966;DHT22;50151;52.030;5.350;2023-02-18T06:22:02;9.90;99.90
63966;DHT22;50151;52.030;5.350;2023-02-18T06:24:29;9.80;99.90
63966;DHT22;50151;52.030;5.350;2023-02-18T06:26:55;9.80;99.90
63966;DHT22;50151;52.030;5.350;2023-02-18T06:29:22;9.80;99.90
63966;DHT22;50151;52.030;5.350;2023-02-18T06:31:49;9.80;99.90
63966;DHT22;50151;52.030;5.350;2023-02-18T06:34:16;9.80;99.90
63966;DHT22;50151;52.030;5.350;2023-02-18T06:36:43;9.80;99.90
63966;DHT22;50151;52.030;5.350;2023-02-18T06:39:09;9.80;99.90
63966;DHT22;50151;52.030;5.350;2023-02-18T06:41:36;9.80;99.90
63966;DHT22;50151;52.030;5.350;2023-02-18T06:44:03;9.80;99.90
63966;DHT22;50151;52.030;5.350;2023-02-18T06:46:29;9.80;99.90
63966;DHT22;50151;52.030;5.350;2023-02-18T06:48:56;9.80;99.90
63966;DHT22;50151;52.030;5.350;2023-02-18T06:51:23;9.80;99.90
63966;DHT22;50151;52.030;5.350;2023-02-18T06:53:50;9.80;99.90
63966;DHT22;50151;52.030;5.350;2023-02-18T06:56:17;9.80;99.90
63966;DHT22;50151;52.030;5.350;2023-02-18T06:58:43;9.80;99.90
63966;DHT22;50151;52.030;5.350;2023-02-18T07:01:10;9.80;99.90
63966;DHT22;50151;52.030;5.350;2023-02-18T07:03:37;9.80;99.90
63966;DHT22;50151;52.030;5.350;2023-02-18T07:06:04;9.80;99.90
63966;DHT22;50151;52.030;5.350;2023-02-18T07:08:30;9.80;99.90
63966;DHT22;50151;52.030;5.350;2023-02-18T07:11:01;9.80;99.90
63966;DHT22;50151;52.030;5.350;2023-02-18T07:13:28;9.80;99.90
63966;DHT22;50151;52.030;5.350;2023-02-18T07:15:54;9.90;99.90
63966;DHT22;50151;52.030;5.350;2023-02-18T07:18:21;9.90;99.90
63966;DHT22;50151;52.030;5.350;2023-02-18T07:20:48;9.90;99.90
63966;DHT22;50151;52.030;5.350;2023-02-18T07:23:14;9.90;99.90
63966;DHT22;50151;52.030;5.350;2023-02-18T07:25:41;9.90;99.90
63966;DHT22;50151;52.030;5.350;2023-02-18T07:28:08;9.90;99.90
63966;DHT22;50151;52.030;5.350;2023-02-18T07:30:34;9.80;99.90
63966;DHT22;50151;52.030;5.350;2023-02-18T07:33:01;9.80;99.90
63966;DHT22;50151;52.030;5.350;2023-02-18T07:35:29;9.80;99.90
63966;DHT22;50151;52.030;5.350;2023-02-18T07:37:56;9.80;99.90
63966;DHT22;50151;52.030;5.350;2023-02-18T07:40:23;9.80;99.90
63966;DHT22;50151;52.030;5.350;2023-02-18T07:42:50;9.70;99.90
63966;DHT22;50151;52.030;5.350;2023-02-18T07:45:16;9.80;99.90
63966;DHT22;50151;52.030;5.350;2023-02-18T07:47:43;9.70;99.90
63966;DHT22;50151;52.030;5.350;2023-02-18T07:50:11;9.80;99.90
63966;DHT22;50151;52.030;5.350;2023-02-18T07:52:37;9.70;99.90
63966;DHT22;50151;52.030;5.350;2023-02-18T07:55:04;9.80;99.90
63966;DHT22;50151;52.030;5.350;2023-02-18T07:57:31;9.70;99.90
63966;DHT22;50151;52.030;5.350;2023-02-18T07:59:58;9.70;99.90
63966;DHT22;50151;52.030;5.350;2023-02-18T08:02:24;9.70;99.90
63966;DHT22;50151;52.030;5.350;2023-02-18T08:04:51;9.70;99.90
63966;DHT22;50151;52.030;5.350;2023-02-18T08:07:20;9.70;99.90
63966;DHT22;50151;52.030;5.350;2023-02-18T08:09:47;9.70;99.90
63966;DHT22;50151;52.030;5.350;2023-02-18T08:12:15;9.70;99.90
63966;DHT22;50151;52.030;5.350;2023-02-18T08:14:42;9.60;99.90
63966;DHT22;50151;52.030;5.350;2023-02-18T08:17:09;9.60;99.90
63966;DHT22;50151;52.030;5.350;2023-02-18T08:19:36;9.60;99.90
63966;DHT22;50151;52.030;5.350;2023-02-18T08:22:02;9.60;99.90
63966;DHT22;50151;52.030;5.350;2023-02-18T08:24:29;9.60;99.90
63966;DHT22;50151;52.030;5.350;2023-02-18T08:26:56;9.60;99.90
63966;DHT22;50151;52.030;5.350;2023-02-18T08:29:28;9.60;99.90
63966;DHT22;50151;52.030;5.350;2023-02-18T08:31:55;9.60;99.90
63966;DHT22;50151;52.030;5.350;2023-02-18T08:34:23;9.50;99.90
63966;DHT22;50151;52.030;5.350;2023-02-18T08:36:50;9.50;99.90
63966;DHT22;50151;52.030;5.350;2023-02-18T08:39:17;9.50;99.90
63966;DHT22;50151;52.030;5.350;2023-02-18T08:41:43;9.50;99.90
63966;DHT22;50151;52.030;5.350;2023-02-18T08:44:12;9.60;99.90
63966;DHT22;50151;52.030;5.350;2023-02-18T08:46:39;9.50;99.90
63966;DHT22;50151;52.030;5.350;2023-02-18T08:49:06;9.50;99.90
63966;DHT22;50151;52.030;5.350;2023-02-18T08:51:33;9.50;99.90
63966;DHT22;50151;52.030;5.350;2023-02-18T08:54:00;9.50;99.90
63966;DHT22;50151;52.030;5.350;2023-02-18T08:56:27;9.40;99.90
63966;DHT22;50151;52.030;5.350;2023-02-18T08:58:54;9.40;99.90
63966;DHT22;50151;52.030;5.350;2023-02-18T09:01:21;9.40;99.90
63966;DHT22;50151;52.030;5.350;2023-02-18T09:03:47;9.40;99.90
63966;DHT22;50151;52.030;5.350;2023-02-18T09:06:14;9.40;99.90
63966;DHT22;50151;52.030;5.350;2023-02-18T09:08:41;9.40;99.90
63966;DHT22;50151;52.030;5.350;2023-02-18T09:11:10;9.40;99.90
63966;DHT22;50151;52.030;5.350;2023-02-18T09:13:37;9.40;99.90
63966;DHT22;50151;52.030;5.350;2023-02-18T09:16:06;9.50;99.90
63966;DHT22;50151;52.030;5.350;2023-02-18T09:18:34;9.50;99.90
63966;DHT22;50151;52.030;5.350;2023-02-18T09:21:05;9.50;99.90
63966;DHT22;50151;52.030;5.350;2023-02-18T09:23:33;9.50;99.90
63966;DHT22;50151;52.030;5.350;2023-02-18T09:26:06;9.50;99.90
63966;DHT22;50151;52.030;5.350;2023-02-18T09:28:34;9.60;99.90
63966;DHT22;50151;52.030;5.350;2023-02-18T09:31:10;9.60;99.90
63966;DHT22;50151;52.030;5.350;2023-02-18T09:33:39;9.60;99.90
63966;DHT22;50151;52.030;5.350;2023-02-18T09:36:07;9.60;99.90
63966;DHT22;50151;52.030;5.350;2023-02-18T09:38:34;9.60;99.90
63966;DHT22;50151;52.030;5.350;2023-02-18T09:41:04;9.60;99.90
63966;DHT22;50151;52.030;5.350;2023-02-18T09:43:39;9.60;99.90
63966;DHT22;50151;52.030;5.350;2023-02-18T09:46:21;9.70;99.90
63966;DHT22;50151;52.030;5.350;2023-02-18T09:48:49;9.70;99.90
63966;DHT22;50151;52.030;5.350;2023-02-18T09:51:16;9.70;99.90
63966;DHT22;50151;52.030;5.350;2023-02-18T09:53:44;9.70;99.90
63966;DHT22;50151;52.030;5.350;2023-02-18T09:56:21;9.80;99.90
63966;DHT22;50151;52.030;5.350;2023-02-18T09:58:48;9.80;99.90
63966;DHT22;50151;52.030;5.350;2023-02-18T10:01:31;9.70;99.90
63966;DHT22;50151;52.030;5.350;2023-02-18T10:04:03;9.80;99.90
63966;DHT22;50151;52.030;5.350;2023-02-18T10:06:32;9.80;99.90
63966;DHT22;50151;52.030;5.350;2023-02-18T10:09:08;9.80;99.90
63966;DHT22;50151;52.030;5.350;2023-02-18T10:11:42;9.80;99.90
63966;DHT22;50151;52.030;5.350;2023-02-18T10:14:11;9.80;99.90
63966;DHT22;50151;52.030;5.350;2023-02-18T10:16:39;9.80;99.90
63966;DHT22;50151;52.030;5.350;2023-02-18T10:21:45;9.90;99.90
63966;DHT22;50151;52.030;5.350;2023-02-18T10:24:32;9.90;99.90
63966;DHT22;50151;52.030;5.350;2023-02-18T10:27:00;9.90;99.90
63966;DHT22;50151;52.030;5.350;2023-02-18T10:29:28;10.00;99.90
63966;DHT22;50151;52.030;5.350;2023-02-18T10:32:10;10.00;99.90
63966;DHT22;50151;52.030;5.350;2023-02-18T10:37:41;10.10;99.90
63966;DHT22;50151;52.030;5.350;2023-02-18T10:40:20;10.00;99.90
63966;DHT22;50151;52.030;5.350;2023-02-18T10:46:11;10.10;99.90
63966;DHT22;50151;52.030;5.350;2023-02-18T10:51:28;10.10;99.90
63966;DHT22;50151;52.030;5.350;2023-02-18T10:53:57;10.10;99.90
63966;DHT22;50151;52.030;5.350;2023-02-18T10:56:39;10.20;99.90
63966;DHT22;50151;52.030;5.350;2023-02-18T10:59:21;10.20;99.90
63966;DHT22;50151;52.030;5.350;2023-02-18T11:02:00;10.20;99.90
63966;DHT22;50151;52.030;5.350;2023-02-18T11:04:36;10.20;99.90
63966;DHT22;50151;52.030;5.350;2023-02-18T11:07:11;10.20;99.90
63966;DHT22;50151;52.030;5.350;2023-02-18T11:12:23;10.30;99.90
63966;DHT22;50151;52.030;5.350;2023-02-18T11:15:15;10.30;99.90
63966;DHT22;50151;52.030;5.350;2023-02-18T11:17:48;10.30;99.90
63966;DHT22;50151;52.030;5.350;2023-02-18T11:22:50;10.40;99.90
63966;DHT22;50151;52.030;5.350;2023-02-18T11:25:24;10.40;99.90
63966;DHT22;50151;52.030;5.350;2023-02-18T11:27:55;10.50;99.90
63966;DHT22;50151;52.030;5.350;2023-02-18T11:30:40;10.50;99.90
63966;DHT22;50151;52.030;5.350;2023-02-18T11:33:32;10.60;99.90
63966;DHT22;50151;52.030;5.350;2023-02-18T11:36:50;10.60;99.90
63966;DHT22;50151;52.030;5.350;2023-02-18T11:38:57;10.60;99.90
63966;DHT22;50151;52.030;5.350;2023-02-18T11:41:34;10.70;99.90
63966;DHT22;50151;52.030;5.350;2023-02-18T11:44:05;10.70;99.90
63966;DHT22;50151;52.030;5.350;2023-02-18T11:46:32;10.70;99.90
63966;DHT22;50151;52.030;5.350;2023-02-18T11:49:22;10.70;99.90
63966;DHT22;50151;52.030;5.350;2023-02-18T11:51:49;10.80;99.90
63966;DHT22;50151;52.030;5.350;2023-02-18T11:54:26;10.70;99.90
63966;DHT22;50151;52.030;5.350;2023-02-18T11:57:09;10.70;99.90
63966;DHT22;50151;52.030;5.350;2023-02-18T11:59:39;10.80;99.90
63966;DHT22;50151;52.030;5.350;2023-02-18T12:07:27;10.80;99.90
63966;DHT22;50151;52.030;5.350;2023-02-18T12:09:59;10.90;99.90
63966;DHT22;50151;52.030;5.350;2023-02-18T12:12:39;11.00;99.90
63966;DHT22;50151;52.030;5.350;2023-02-18T12:15:13;11.00;99.90
63966;DHT22;50151;52.030;5.350;2023-02-18T12:18:04;11.10;99.90
63966;DHT22;50151;52.030;5.350;2023-02-18T12:26:28;11.10;99.90
63966;DHT22;50151;52.030;5.350;2023-02-18T12:29:41;11.10;99.90
63966;DHT22;50151;52.030;5.350;2023-02-18T12:32:27;11.10;99.90
63966;DHT22;50151;52.030;5.350;2023-02-18T12:38:27;11.10;99.90
63966;DHT22;50151;52.030;5.350;2023-02-18T12:41:08;11.10;99.90
63966;DHT22;50151;52.030;5.350;2023-02-18T12:44:06;11.20;99.90
63966;DHT22;50151;52.030;5.350;2023-02-18T12:49:30;11.20;99.90
63966;DHT22;50151;52.030;5.350;2023-02-18T12:52:20;11.30;99.90
63966;DHT22;50151;52.030;5.350;2023-02-18T12:55:11;11.30;99.90
63966;DHT22;50151;52.030;5.350;2023-02-18T12:57:55;11.40;99.90
63966;DHT22;50151;52.030;5.350;2023-02-18T13:06:43;11.50;99.90
63966;DHT22;50151;52.030;5.350;2023-02-18T13:09:43;11.40;99.90
63966;DHT22;50151;52.030;5.350;2023-02-18T13:12:28;11.50;99.90
63966;DHT22;50151;52.030;5.350;2023-02-18T13:15:22;11.50;99.90
63966;DHT22;50151;52.030;5.350;2023-02-18T13:17:49;11.40;99.90
63966;DHT22;50151;52.030;5.350;2023-02-18T13:20:22;11.40;99.90
63966;DHT22;50151;52.030;5.350;2023-02-18T13:22:52;11.50;99.90
63966;DHT22;50151;52.030;5.350;2023-02-18T13:25:20;11.50;99.90
63966;DHT22;50151;52.030;5.350;2023-02-18T13:33:26;11.50;99.90
63966;DHT22;50151;52.030;5.350;2023-02-18T13:36:03;11.50;99.90
63966;DHT22;50151;52.030;5.350;2023-02-18T13:41:19;11.60;99.90
63966;DHT22;50151;52.030;5.350;2023-02-18T13:43:46;11.50;99.90
63966;DHT22;50151;52.030;5.350;2023-02-18T13:46:17;11.60;99.90
63966;DHT22;50151;52.030;5.350;2023-02-18T13:56:44;11.60;99.90
63966;DHT22;50151;52.030;5.350;2023-02-18T13:59:19;11.60;99.90
63966;DHT22;50151;52.030;5.350;2023-02-18T14:01:51;11.70;99.90
63966;DHT22;50151;52.030;5.350;2023-02-18T14:18:21;11.80;99.90
63966;DHT22;50151;52.030;5.350;2023-02-18T14:20:50;11.80;99.90
63966;DHT22;50151;52.030;5.350;2023-02-18T14:26:16;11.80;99.90
63966;DHT22;50151;52.030;5.350;2023-02-18T14:34:08;11.90;99.90
63966;DHT22;50151;52.030;5.350;2023-02-18T14:39:47;11.90;99.90
63966;DHT22;50151;52.030;5.350;2023-02-18T14:45:22;11.90;99.90
63966;DHT22;50151;52.030;5.350;2023-02-18T14:50:23;12.00;99.90
63966;DHT22;50151;52.030;5.350;2023-02-18T14:52:57;11.90;99.90
63966;DHT22;50151;52.030;5.350;2023-02-18T14:55:28;11.90;99.90
63966;DHT22;50151;52.030;5.350;2023-02-18T14:57:59;11.80;99.90
63966;DHT22;50151;52.030;5.350;2023-02-18T15:00:29;11.70;99.90
63966;DHT22;50151;52.030;5.350;2023-02-18T15:03:00;11.70;99.90
63966;DHT22;50151;52.030;5.350;2023-02-18T15:05:30;11.60;99.90
63966;DHT22;50151;52.030;5.350;2023-02-18T15:08:04;11.60;99.90
63966;DHT22;50151;52.030;5.350;2023-02-18T15:10:40;11.50;99.90
63966;DHT22;50151;52.030;5.350;2023-02-18T15:13:35;11.50;99.90
63966;DHT22;50151;52.030;5.350;2023-02-18T15:16:05;11.50;99.90
63966;DHT22;50151;52.030;5.350;2023-02-18T15:18:47;11.60;99.90
63966;DHT22;50151;52.030;5.350;2023-02-18T15:21:29;11.60;99.90
63966;DHT22;50151;52.030;5.350;2023-02-18T15:24:29;11.60;99.90
63966;DHT22;50151;52.030;5.350;2023-02-18T15:27:42;11.60;99.90
63966;DHT22;50151;52.030;5.350;2023-02-18T15:29:57;11.60;99.90
63966;DHT22;50151;52.030;5.350;2023-02-18T15:32:27;11.60;99.90
63966;DHT22;50151;52.030;5.350;2023-02-18T15:34:59;11.50;99.90
63966;DHT22;50151;52.030;5.350;2023-02-18T15:37:28;11.60;99.90
63966;DHT22;50151;52.030;5.350;2023-02-18T15:39:55;11.50;99.90
63966;DHT22;50151;52.030;5.350;2023-02-18T15:42:26;11.40;99.90
63966;DHT22;50151;52.030;5.350;2023-02-18T15:47:28;11.40;99.90
63966;DHT22;50151;52.030;5.350;2023-02-18T15:49:58;11.40;99.90
63966;DHT22;50151;52.030;5.350;2023-02-18T15:52:30;11.30;99.90
63966;DHT22;50151;52.030;5.350;2023-02-18T15:55:10;11.30;99.90
63966;DHT22;50151;52.030;5.350;2023-02-18T15:57:38;11.30;99.90
63966;DHT22;50151;52.030;5.350;2023-02-18T16:00:20;11.20;99.90
63966;DHT22;50151;52.030;5.350;2023-02-18T16:05:24;11.20;99.90
63966;DHT22;50151;52.030;5.350;2023-02-18T16:08:05;11.20;99.90
63966;DHT22;50151;52.030;5.350;2023-02-18T16:10:52;11.20;99.90
63966;DHT22;50151;52.030;5.350;2023-02-18T16:13:20;11.20;99.90
63966;DHT22;50151;52.030;5.350;2023-02-18T16:15:49;11.20;99.90
63966;DHT22;50151;52.030;5.350;2023-02-18T16:21:00;11.10;99.90
63966;DHT22;50151;52.030;5.350;2023-02-18T16:26:42;11.10;99.90
63966;DHT22;50151;52.030;5.350;2023-02-18T16:29:20;11.20;99.90
63966;DHT22;50151;52.030;5.350;2023-02-18T16:31:47;11.10;99.90
63966;DHT22;50151;52.030;5.350;2023-02-18T16:34:14;11.10;99.90
63966;DHT22;50151;52.030;5.350;2023-02-18T16:36:40;11.10;99.90
63966;DHT22;50151;52.030;5.350;2023-02-18T16:39:29;11.00;99.90
63966;DHT22;50151;52.030;5.350;2023-02-18T16:41:58;11.00;99.90
63966;DHT22;50151;52.030;5.350;2023-02-18T16:44:25;11.00;99.90
63966;DHT22;50151;52.030;5.350;2023-02-18T16:46:51;10.90;99.90
63966;DHT22;50151;52.030;5.350;2023-02-18T16:49:18;10.90;99.90
63966;DHT22;50151;52.030;5.350;2023-02-18T16:51:47;10.90;99.90
63966;DHT22;50151;52.030;5.350;2023-02-18T16:54:14;10.90;99.90
63966;DHT22;50151;52.030;5.350;2023-02-18T16:56:41;10.90;99.90
63966;DHT22;50151;52.030;5.350;2023-02-18T16:59:07;10.80;99.90
63966;DHT22;50151;52.030;5.350;2023-02-18T17:01:40;10.90;99.90
63966;DHT22;50151;52.030;5.350;2023-02-18T17:04:14;10.80;99.90
63966;DHT22;50151;52.030;5.350;2023-02-18T17:06:42;10.80;99.90
63966;DHT22;50151;52.030;5.350;2023-02-18T17:09:15;10.80;99.90
63966;DHT22;50151;52.030;5.350;2023-02-18T17:11:48;10.80;99.90
63966;DHT22;50151;52.030;5.350;2023-02-18T17:14:17;10.70;99.90
63966;DHT22;50151;52.030;5.350;2023-02-18T17:16:50;10.70;99.90
63966;DHT22;50151;52.030;5.350;2023-02-18T17:19:17;10.70;99.90
63966;DHT22;50151;52.030;5.350;2023-02-18T17:21:44;10.60;99.90
63966;DHT22;50151;52.030;5.350;2023-02-18T17:24:16;10.60;99.90
63966;DHT22;50151;52.030;5.350;2023-02-18T17:26:45;10.60;99.90
63966;DHT22;50151;52.030;5.350;2023-02-18T17:29:11;10.60;99.90
63966;DHT22;50151;52.030;5.350;2023-02-18T17:31:41;10.50;99.90
63966;DHT22;50151;52.030;5.350;2023-02-18T17:34:24;10.50;99.90
63966;DHT22;50151;52.030;5.350;2023-02-18T17:36:52;10.60;99.90
63966;DHT22;50151;52.030;5.350;2023-02-18T17:39:19;10.50;99.90
63966;DHT22;50151;52.030;5.350;2023-02-18T17:41:46;10.50;99.90
63966;DHT22;50151;52.030;5.350;2023-02-18T17:44:19;10.50;99.90
63966;DHT22;50151;52.030;5.350;2023-02-18T17:46:46;10.50;99.90
63966;DHT22;50151;52.030;5.350;2023-02-18T17:49:15;10.50;99.90
63966;DHT22;50151;52.030;5.350;2023-02-18T17:51:42;10.40;99.90
63966;DHT22;50151;52.030;5.350;2023-02-18T17:54:14;10.40;99.90
63966;DHT22;50151;52.030;5.350;2023-02-18T17:56:42;10.40;99.90
63966;DHT22;50151;52.030;5.350;2023-02-18T17:59:09;10.40;99.90
63966;DHT22;50151;52.030;5.350;2023-02-18T18:01:36;10.40;99.90
63966;DHT22;50151;52.030;5.350;2023-02-18T18:04:10;10.40;99.90
63966;DHT22;50151;52.030;5.350;2023-02-18T18:06:38;10.40;99.90
63966;DHT22;50151;52.030;5.350;2023-02-18T18:09:05;10.30;99.90
63966;DHT22;50151;52.030;5.350;2023-02-18T18:11:32;10.30;99.90